sensor_id;sensor_type;location;lat;lon;timestamp;P1;durP1;ratioP1;P2;durP2;ratioP2
14100;SDS011;7127;49.372;8.166;2023-12-28T00:02:02;3.03;;;2.20;;
14100;SDS011;7127;49.372;8.166;2023-12-28T00:04:29;1.77;;;1.60;;
14100;SDS011;7127;49.372;8.166;2023-12-28T00:06:56;2.57;;;1.67;;
14100;SDS011;7127;49.372;8.166;2023-12-28T00:09:22;2.17;;;1.67;;
14100;SDS011;7127;49.372;8.166;2023-12-28T00:11:49;2.33;;;1.80;;
14100;SDS011;7127;49.372;8.166;2023-12-28T00:14:16;2.10;;;1.57;;
14100;SDS011;7127;49.372;8.166;2023-12-28T00:16:43;1.70;;;1.60;;
14100;SDS011;7127;49.372;8.166;2023-12-28T00:19:11;2.57;;;1.67;;
14100;SDS011;7127;49.372;8.166;2023-12-28T00:21:38;2.00;;;1.50;;
14100;SDS011;7127;49.372;8.166;2023-12-28T00:24:05;2.00;;;1.60;;
14100;SDS011;7127;49.372;8.166;2023-12-28T00:26:31;1.93;;;1.50;;
14100;SDS011;7127;49.372;8.166;2023-12-28T00:28:58;2.07;;;1.70;;
14100;SDS011;7127;49.372;8.166;2023-12-28T00:31:25;1.60;;;1.50;;
14100;SDS011;7127;49.372;8.166;2023-12-28T00:33:52;2.17;;;1.60;;
14100;SDS011;7127;49.372;8.166;2023-12-28T00:36:20;2.77;;;1.80;;
14100;SDS011;7127;49.372;8.166;2023-12-28T00:38:46;2.67;;;1.70;;
14100;SDS011;7127;49.372;8.166;2023-12-28T00:41:13;2.20;;;1.93;;
14100;SDS011;7127;49.372;8.166;2023-12-28T00:43:40;2.73;;;1.60;;
14100;SDS011;7127;49.372;8.166;2023-12-28T00:46:07;2.13;;;1.53;;
14100;SDS011;7127;49.372;8.166;2023-12-28T00:48:33;2.77;;;1.70;;
14100;SDS011;7127;49.372;8.166;2023-12-28T00:51:00;2.03;;;1.70;;
14100;SDS011;7127;49.372;8.166;2023-12-28T00:53:28;2.17;;;1.70;;
14100;SDS011;7127;49.372;8.166;2023-12-28T00:55:55;1.93;;;1.73;;
14100;SDS011;7127;49.372;8.166;2023-12-28T00:58:22;3.27;;;1.90;;
14100;SDS011;7127;49.372;8.166;2023-12-28T01:00:48;1.70;;;1.60;;
14100;SDS011;7127;49.372;8.166;2023-12-28T01:03:18;2.63;;;2.10;;
14100;SDS011;7127;49.372;8.166;2023-12-28T01:05:45;2.60;;;1.80;;
14100;SDS011;7127;49.372;8.166;2023-12-28T01:08:15;3.30;;;1.70;;
14100;SDS011;7127;49.372;8.166;2023-12-28T01:10:43;1.93;;;1.70;;
14100;SDS011;7127;49.372;8.166;2023-12-28T01:13:10;1.77;;;1.67;;
14100;SDS011;7127;49.372;8.166;2023-12-28T01:15:37;4.43;;;1.80;;
14100;SDS011;7127;49.372;8.166;2023-12-28T01:18:03;2.07;;;1.70;;
14100;SDS011;7127;49.372;8.166;2023-12-28T01:20:30;1.90;;;1.60;;
14100;SDS011;7127;49.372;8.166;2023-12-28T01:22:57;2.27;;;1.73;;
14100;SDS011;7127;49.372;8.166;2023-12-28T01:25:24;3.33;;;1.67;;
14100;SDS011;7127;49.372;8.166;2023-12-28T01:27:52;1.70;;;1.60;;
14100;SDS011;7127;49.372;8.166;2023-12-28T01:30:19;2.03;;;1.60;;
14100;SDS011;7127;49.372;8.166;2023-12-28T01:32:45;2.13;;;1.60;;
14100;SDS011;7127;49.372;8.166;2023-12-28T01:35:12;2.30;;;1.70;;
14100;SDS011;7127;49.372;8.166;2023-12-28T01:37:39;2.60;;;1.70;;
14100;SDS011;7127;49.372;8.166;2023-12-28T01:40:06;2.83;;;1.80;;
14100;SDS011;7127;49.372;8.166;2023-12-28T01:42:34;4.23;;;1.70;;
14100;SDS011;7127;49.372;8.166;2023-12-28T01:45:02;3.00;;;1.90;;
14100;SDS011;7127;49.372;8.166;2023-12-28T01:47:29;2.47;;;1.60;;
14100;SDS011;7127;49.372;8.166;2023-12-28T01:49:56;2.07;;;1.40;;
14100;SDS011;7127;49.372;8.166;2023-12-28T01:52:24;1.70;;;1.50;;
14100;SDS011;7127;49.372;8.166;2023-12-28T01:54:51;2.10;;;1.70;;
14100;SDS011;7127;49.372;8.166;2023-12-28T01:57:18;2.10;;;1.80;;
14100;SDS011;7127;49.372;8.166;2023-12-28T01:59:45;1.70;;;1.57;;
14100;SDS011;7127;49.372;8.166;2023-12-28T02:02:13;3.20;;;1.90;;
14100;SDS011;7127;49.372;8.166;2023-12-28T02:04:39;2.10;;;1.73;;
14100;SDS011;7127;49.372;8.166;2023-12-28T02:07:06;1.57;;;1.40;;
14100;SDS011;7127;49.372;8.166;2023-12-28T02:09:34;1.80;;;1.43;;
14100;SDS011;7127;49.372;8.166;2023-12-28T02:12:00;1.67;;;1.57;;
14100;SDS011;7127;49.372;8.166;2023-12-28T02:14:27;1.77;;;1.40;;
14100;SDS011;7127;49.372;8.166;2023-12-28T02:16:56;2.80;;;1.70;;
14100;SDS011;7127;49.372;8.166;2023-12-28T02:19:36;2.07;;;1.50;;
14100;SDS011;7127;49.372;8.166;2023-12-28T02:22:09;1.60;;;1.50;;
14100;SDS011;7127;49.372;8.166;2023-12-28T02:24:59;2.33;;;1.43;;
14100;SDS011;7127;49.372;8.166;2023-12-28T02:27:29;2.50;;;1.67;;
14100;SDS011;7127;49.372;8.166;2023-12-28T02:29:55;2.50;;;1.60;;
14100;SDS011;7127;49.372;8.166;2023-12-28T02:32:24;1.80;;;1.57;;
14100;SDS011;7127;49.372;8.166;2023-12-28T02:34:59;1.80;;;1.50;;
14100;SDS011;7127;49.372;8.166;2023-12-28T02:37:32;2.50;;;1.50;;
14100;SDS011;7127;49.372;8.166;2023-12-28T02:40:01;1.80;;;1.63;;
14100;SDS011;7127;49.372;8.166;2023-12-28T02:42:29;1.70;;;1.50;;
14100;SDS011;7127;49.372;8.166;2023-12-28T02:44:55;1.50;;;1.40;;
14100;SDS011;7127;49.372;8.166;2023-12-28T02:47:22;2.10;;;1.60;;
14100;SDS011;7127;49.372;8.166;2023-12-28T02:49:49;1.40;;;1.30;;
14100;SDS011;7127;49.372;8.166;2023-12-28T02:52:16;2.23;;;1.70;;
14100;SDS011;7127;49.372;8.166;2023-12-28T02:54:42;1.80;;;1.53;;
14100;SDS011;7127;49.372;8.166;2023-12-28T02:57:10;4.23;;;1.60;;
14100;SDS011;7127;49.372;8.166;2023-12-28T02:59:37;1.67;;;1.37;;
14100;SDS011;7127;49.372;8.166;2023-12-28T03:02:04;1.50;;;1.30;;
14100;SDS011;7127;49.372;8.166;2023-12-28T03:04:31;1.23;;;1.13;;
14100;SDS011;7127;49.372;8.166;2023-12-28T03:06:58;1.40;;;1.10;;
14100;SDS011;7127;49.372;8.166;2023-12-28T03:09:25;3.00;;;1.43;;
14100;SDS011;7127;49.372;8.166;2023-12-28T03:11:51;2.37;;;0.90;;
14100;SDS011;7127;49.372;8.166;2023-12-28T03:14:19;1.13;;;1.00;;
14100;SDS011;7127;49.372;8.166;2023-12-28T03:16:47;1.10;;;1.00;;
14100;SDS011;7127;49.372;8.166;2023-12-28T03:19:13;1.23;;;1.00;;
14100;SDS011;7127;49.372;8.166;2023-12-28T03:21:40;1.27;;;1.17;;
14100;SDS011;7127;49.372;8.166;2023-12-28T03:24:07;1.00;;;0.90;;
14100;SDS011;7127;49.372;8.166;2023-12-28T03:26:37;1.00;;;0.90;;
14100;SDS011;7127;49.372;8.166;2023-12-28T03:29:05;1.10;;;0.87;;
14100;SDS011;7127;49.372;8.166;2023-12-28T03:31:33;1.07;;;0.90;;
14100;SDS011;7127;49.372;8.166;2023-12-28T03:34:00;0.60;;;0.60;;
14100;SDS011;7127;49.372;8.166;2023-12-28T03:36:26;0.80;;;0.80;;
14100;SDS011;7127;49.372;8.166;2023-12-28T03:38:53;1.10;;;1.00;;
14100;SDS011;7127;49.372;8.166;2023-12-28T03:41:20;0.80;;;0.73;;
14100;SDS011;7127;49.372;8.166;2023-12-28T03:43:47;2.17;;;0.90;;
14100;SDS011;7127;49.372;8.166;2023-12-28T03:46:14;0.87;;;0.70;;
14100;SDS011;7127;49.372;8.166;2023-12-28T03:48:42;1.03;;;0.93;;
14100;SDS011;7127;49.372;8.166;2023-12-28T03:51:13;1.77;;;1.00;;
14100;SDS011;7127;49.372;8.166;2023-12-28T03:53:40;1.93;;;1.00;;
14100;SDS011;7127;49.372;8.166;2023-12-28T03:56:06;0.87;;;0.80;;
14100;SDS011;7127;49.372;8.166;2023-12-28T03:58:33;0.90;;;0.90;;
14100;SDS011;7127;49.372;8.166;2023-12-28T04:01:00;0.93;;;0.90;;
14100;SDS011;7127;49.372;8.166;2023-12-28T04:03:27;0.80;;;0.80;;
14100;SDS011;7127;49.372;8.166;2023-12-28T04:05:55;1.27;;;1.00;;
14100;SDS011;7127;49.372;8.166;2023-12-28T04:08:21;0.87;;;0.70;;
14100;SDS011;7127;49.372;8.166;2023-12-28T04:10:48;1.10;;;1.00;;
14100;SDS011;7127;49.372;8.166;2023-12-28T04:13:15;1.77;;;1.10;;
14100;SDS011;7127;49.372;8.166;2023-12-28T04:15:42;0.80;;;0.80;;
14100;SDS011;7127;49.372;8.166;2023-12-28T04:18:09;0.70;;;0.70;;
14100;SDS011;7127;49.372;8.166;2023-12-28T04:20:35;1.07;;;0.80;;
14100;SDS011;7127;49.372;8.166;2023-12-28T04:23:03;0.87;;;0.80;;
14100;SDS011;7127;49.372;8.166;2023-12-28T04:25:30;0.90;;;0.80;;
14100;SDS011;7127;49.372;8.166;2023-12-28T04:27:57;0.77;;;0.77;;
14100;SDS011;7127;49.372;8.166;2023-12-28T04:30:24;1.17;;;0.83;;
14100;SDS011;7127;49.372;8.166;2023-12-28T04:32:51;0.80;;;0.80;;
14100;SDS011;7127;49.372;8.166;2023-12-28T04:35:17;0.63;;;0.63;;
14100;SDS011;7127;49.372;8.166;2023-12-28T04:37:44;1.10;;;1.00;;
14100;SDS011;7127;49.372;8.166;2023-12-28T04:40:12;1.07;;;0.93;;
14100;SDS011;7127;49.372;8.166;2023-12-28T04:42:39;0.80;;;0.80;;
14100;SDS011;7127;49.372;8.166;2023-12-28T04:45:07;1.00;;;0.50;;
14100;SDS011;7127;49.372;8.166;2023-12-28T04:47:35;1.13;;;0.70;;
14100;SDS011;7127;49.372;8.166;2023-12-28T04:50:01;0.80;;;0.70;;
14100;SDS011;7127;49.372;8.166;2023-12-28T04:52:28;1.00;;;0.90;;
14100;SDS011;7127;49.372;8.166;2023-12-28T04:54:55;0.80;;;0.80;;
14100;SDS011;7127;49.372;8.166;2023-12-28T04:57:23;0.63;;;0.63;;
14100;SDS011;7127;49.372;8.166;2023-12-28T04:59:51;1.50;;;0.63;;
14100;SDS011;7127;49.372;8.166;2023-12-28T05:02:18;1.00;;;0.80;;
14100;SDS011;7127;49.372;8.166;2023-12-28T05:04:45;1.27;;;0.90;;
14100;SDS011;7127;49.372;8.166;2023-12-28T05:07:11;1.13;;;0.70;;
14100;SDS011;7127;49.372;8.166;2023-12-28T05:09:38;0.67;;;0.67;;
14100;SDS011;7127;49.372;8.166;2023-12-28T05:12:06;0.63;;;0.63;;
14100;SDS011;7127;49.372;8.166;2023-12-28T05:14:34;1.37;;;0.70;;
14100;SDS011;7127;49.372;8.166;2023-12-28T05:17:00;0.60;;;0.60;;
14100;SDS011;7127;49.372;8.166;2023-12-28T05:19:27;0.60;;;0.60;;
14100;SDS011;7127;49.372;8.166;2023-12-28T05:21:54;1.30;;;0.80;;
14100;SDS011;7127;49.372;8.166;2023-12-28T05:24:21;1.20;;;0.80;;
14100;SDS011;7127;49.372;8.166;2023-12-28T05:26:47;0.93;;;0.70;;
14100;SDS011;7127;49.372;8.166;2023-12-28T05:29:14;0.63;;;0.63;;
14100;SDS011;7127;49.372;8.166;2023-12-28T05:31:42;1.00;;;0.67;;
14100;SDS011;7127;49.372;8.166;2023-12-28T05:34:09;0.47;;;0.47;;
14100;SDS011;7127;49.372;8.166;2023-12-28T05:36:36;0.57;;;0.57;;
14100;SDS011;7127;49.372;8.166;2023-12-28T05:39:02;1.30;;;0.77;;
14100;SDS011;7127;49.372;8.166;2023-12-28T05:41:29;0.50;;;0.50;;
14100;SDS011;7127;49.372;8.166;2023-12-28T05:43:56;0.50;;;0.50;;
14100;SDS011;7127;49.372;8.166;2023-12-28T05:46:22;0.70;;;0.70;;
14100;SDS011;7127;49.372;8.166;2023-12-28T05:48:51;0.43;;;0.43;;
14100;SDS011;7127;49.372;8.166;2023-12-28T05:51:17;1.10;;;0.80;;
14100;SDS011;7127;49.372;8.166;2023-12-28T05:53:44;0.90;;;0.73;;
14100;SDS011;7127;49.372;8.166;2023-12-28T05:56:11;0.93;;;0.43;;
14100;SDS011;7127;49.372;8.166;2023-12-28T05:58:38;0.60;;;0.60;;
14100;SDS011;7127;49.372;8.166;2023-12-28T06:01:05;0.70;;;0.70;;
14100;SDS011;7127;49.372;8.166;2023-12-28T06:03:31;0.80;;;0.70;;
14100;SDS011;7127;49.372;8.166;2023-12-28T06:05:59;0.50;;;0.50;;
14100;SDS011;7127;49.372;8.166;2023-12-28T06:08:26;0.70;;;0.70;;
14100;SDS011;7127;49.372;8.166;2023-12-28T06:10:53;0.70;;;0.60;;
14100;SDS011;7127;49.372;8.166;2023-12-28T06:13:20;0.80;;;0.80;;
14100;SDS011;7127;49.372;8.166;2023-12-28T06:15:46;0.90;;;0.80;;
14100;SDS011;7127;49.372;8.166;2023-12-28T06:18:13;0.80;;;0.60;;
14100;SDS011;7127;49.372;8.166;2023-12-28T06:20:40;0.60;;;0.60;;
14100;SDS011;7127;49.372;8.166;2023-12-28T06:23:08;1.00;;;0.70;;
14100;SDS011;7127;49.372;8.166;2023-12-28T06:25:34;0.80;;;0.70;;
14100;SDS011;7127;49.372;8.166;2023-12-28T06:28:01;0.90;;;0.90;;
14100;SDS011;7127;49.372;8.166;2023-12-28T06:30:28;0.70;;;0.70;;
14100;SDS011;7127;49.372;8.166;2023-12-28T06:32:55;0.67;;;0.60;;
14100;SDS011;7127;49.372;8.166;2023-12-28T06:35:21;0.70;;;0.70;;
14100;SDS011;7127;49.372;8.166;2023-12-28T06:37:48;0.60;;;0.60;;
14100;SDS011;7127;49.372;8.166;2023-12-28T06:40:16;0.60;;;0.60;;
14100;SDS011;7127;49.372;8.166;2023-12-28T06:42:43;0.90;;;0.73;;
14100;SDS011;7127;49.372;8.166;2023-12-28T06:45:10;0.63;;;0.63;;
14100;SDS011;7127;49.372;8.166;2023-12-28T06:47:36;1.07;;;0.80;;
14100;SDS011;7127;49.372;8.166;2023-12-28T06:50:04;0.67;;;0.67;;
14100;SDS011;7127;49.372;8.166;2023-12-28T06:52:31;1.40;;;0.87;;
14100;SDS011;7127;49.372;8.166;2023-12-28T06:54:58;0.70;;;0.70;;
14100;SDS011;7127;49.372;8.166;2023-12-28T06:57:26;0.83;;;0.80;;
14100;SDS011;7127;49.372;8.166;2023-12-28T06:59:53;0.70;;;0.70;;
14100;SDS011;7127;49.372;8.166;2023-12-28T07:02:20;1.10;;;1.00;;
14100;SDS011;7127;49.372;8.166;2023-12-28T07:04:46;1.47;;;0.90;;
14100;SDS011;7127;49.372;8.166;2023-12-28T07:07:13;0.70;;;0.70;;
14100;SDS011;7127;49.372;8.166;2023-12-28T07:09:40;0.77;;;0.70;;
14100;SDS011;7127;49.372;8.166;2023-12-28T07:12:06;1.00;;;0.90;;
14100;SDS011;7127;49.372;8.166;2023-12-28T07:14:35;1.27;;;0.90;;
14100;SDS011;7127;49.372;8.166;2023-12-28T07:17:02;0.70;;;0.60;;
14100;SDS011;7127;49.372;8.166;2023-12-28T07:19:29;0.97;;;0.80;;
14100;SDS011;7127;49.372;8.166;2023-12-28T07:21:55;0.67;;;0.60;;
14100;SDS011;7127;49.372;8.166;2023-12-28T07:24:23;1.07;;;0.80;;
14100;SDS011;7127;49.372;8.166;2023-12-28T07:26:49;0.73;;;0.70;;
14100;SDS011;7127;49.372;8.166;2023-12-28T07:29:16;0.90;;;0.80;;
14100;SDS011;7127;49.372;8.166;2023-12-28T07:31:44;1.00;;;0.90;;
14100;SDS011;7127;49.372;8.166;2023-12-28T07:34:11;1.00;;;0.90;;
14100;SDS011;7127;49.372;8.166;2023-12-28T07:36:38;0.83;;;0.83;;
14100;SDS011;7127;49.372;8.166;2023-12-28T07:39:07;1.13;;;0.90;;
14100;SDS011;7127;49.372;8.166;2023-12-28T07:41:34;1.20;;;0.80;;
14100;SDS011;7127;49.372;8.166;2023-12-28T07:44:01;1.23;;;0.87;;
14100;SDS011;7127;49.372;8.166;2023-12-28T07:46:27;0.83;;;0.77;;
14100;SDS011;7127;49.372;8.166;2023-12-28T07:48:56;0.70;;;0.70;;
14100;SDS011;7127;49.372;8.166;2023-12-28T07:51:22;0.90;;;0.87;;
14100;SDS011;7127;49.372;8.166;2023-12-28T07:53:49;1.50;;;1.00;;
14100;SDS011;7127;49.372;8.166;2023-12-28T07:56:16;1.10;;;1.00;;
14100;SDS011;7127;49.372;8.166;2023-12-28T07:58:43;0.80;;;0.60;;
14100;SDS011;7127;49.372;8.166;2023-12-28T08:01:10;0.87;;;0.80;;
14100;SDS011;7127;49.372;8.166;2023-12-28T08:03:37;1.67;;;0.80;;
14100;SDS011;7127;49.372;8.166;2023-12-28T08:06:05;1.10;;;0.83;;
14100;SDS011;7127;49.372;8.166;2023-12-28T08:08:32;0.70;;;0.70;;
14100;SDS011;7127;49.372;8.166;2023-12-28T08:10:59;1.23;;;0.67;;
14100;SDS011;7127;49.372;8.166;2023-12-28T08:13:26;1.70;;;0.93;;
14100;SDS011;7127;49.372;8.166;2023-12-28T08:15:52;1.73;;;0.70;;
14100;SDS011;7127;49.372;8.166;2023-12-28T08:18:19;1.13;;;0.80;;
14100;SDS011;7127;49.372;8.166;2023-12-28T08:20:46;1.20;;;0.87;;
14100;SDS011;7127;49.372;8.166;2023-12-28T08:23:15;1.20;;;0.90;;
14100;SDS011;7127;49.372;8.166;2023-12-28T08:25:42;1.17;;;1.07;;
14100;SDS011;7127;49.372;8.166;2023-12-28T08:28:09;1.00;;;0.90;;
14100;SDS011;7127;49.372;8.166;2023-12-28T08:30:36;0.90;;;0.90;;
14100;SDS011;7127;49.372;8.166;2023-12-28T08:33:02;1.20;;;1.00;;
14100;SDS011;7127;49.372;8.166;2023-12-28T08:35:29;1.03;;;0.70;;
14100;SDS011;7127;49.372;8.166;2023-12-28T08:37:56;0.90;;;0.80;;
14100;SDS011;7127;49.372;8.166;2023-12-28T08:40:24;0.70;;;0.70;;
14100;SDS011;7127;49.372;8.166;2023-12-28T08:42:51;1.10;;;0.97;;
14100;SDS011;7127;49.372;8.166;2023-12-28T08:45:18;1.53;;;1.03;;
14100;SDS011;7127;49.372;8.166;2023-12-28T08:47:44;0.73;;;0.73;;
14100;SDS011;7127;49.372;8.166;2023-12-28T08:50:11;0.90;;;0.90;;
14100;SDS011;7127;49.372;8.166;2023-12-28T08:52:38;2.80;;;0.80;;
14100;SDS011;7127;49.372;8.166;2023-12-28T08:55:05;0.80;;;0.80;;
14100;SDS011;7127;49.372;8.166;2023-12-28T08:57:33;1.83;;;1.10;;
14100;SDS011;7127;49.372;8.166;2023-12-28T09:00:00;1.40;;;1.07;;
14100;SDS011;7127;49.372;8.166;2023-12-28T09:02:28;1.40;;;0.90;;
14100;SDS011;7127;49.372;8.166;2023-12-28T09:04:54;1.47;;;1.10;;
14100;SDS011;7127;49.372;8.166;2023-12-28T09:07:21;1.03;;;0.93;;
14100;SDS011;7127;49.372;8.166;2023-12-28T09:09:48;0.97;;;0.90;;
14100;SDS011;7127;49.372;8.166;2023-12-28T09:12:15;1.20;;;1.10;;
14100;SDS011;7127;49.372;8.166;2023-12-28T09:14:43;0.90;;;0.90;;
14100;SDS011;7127;49.372;8.166;2023-12-28T09:17:10;0.90;;;0.90;;
14100;SDS011;7127;49.372;8.166;2023-12-28T09:19:39;2.07;;;1.27;;
14100;SDS011;7127;49.372;8.166;2023-12-28T09:22:07;1.17;;;0.90;;
14100;SDS011;7127;49.372;8.166;2023-12-28T09:24:34;1.03;;;0.93;;
14100;SDS011;7127;49.372;8.166;2023-12-28T09:27:00;1.70;;;1.03;;
14100;SDS011;7127;49.372;8.166;2023-12-28T09:29:27;1.43;;;1.07;;
14100;SDS011;7127;49.372;8.166;2023-12-28T09:31:55;1.23;;;0.90;;
14100;SDS011;7127;49.372;8.166;2023-12-28T09:34:22;1.83;;;1.20;;
14100;SDS011;7127;49.372;8.166;2023-12-28T09:36:48;1.53;;;1.00;;
14100;SDS011;7127;49.372;8.166;2023-12-28T09:39:15;1.13;;;1.00;;
14100;SDS011;7127;49.372;8.166;2023-12-28T09:41:42;1.53;;;0.83;;
14100;SDS011;7127;49.372;8.166;2023-12-28T09:44:14;1.83;;;1.20;;
14100;SDS011;7127;49.372;8.166;2023-12-28T09:46:43;1.10;;;1.00;;
14100;SDS011;7127;49.372;8.166;2023-12-28T09:49:12;1.10;;;1.00;;
14100;SDS011;7127;49.372;8.166;2023-12-28T09:51:39;1.20;;;1.10;;
14100;SDS011;7127;49.372;8.166;2023-12-28T09:54:06;1.60;;;1.50;;
14100;SDS011;7127;49.372;8.166;2023-12-28T09:56:33;3.53;;;1.27;;
14100;SDS011;7127;49.372;8.166;2023-12-28T09:59:00;1.30;;;1.17;;
14100;SDS011;7127;49.372;8.166;2023-12-28T10:01:30;2.07;;;1.10;;
14100;SDS011;7127;49.372;8.166;2023-12-28T10:03:57;2.07;;;1.40;;
14100;SDS011;7127;49.372;8.166;2023-12-28T10:06:25;1.57;;;1.40;;
14100;SDS011;7127;49.372;8.166;2023-12-28T10:08:52;1.37;;;1.20;;
14100;SDS011;7127;49.372;8.166;2023-12-28T10:11:20;1.70;;;1.20;;
14100;SDS011;7127;49.372;8.166;2023-12-28T10:13:49;3.83;;;1.40;;
14100;SDS011;7127;49.372;8.166;2023-12-28T10:16:15;1.30;;;1.20;;
14100;SDS011;7127;49.372;8.166;2023-12-28T10:18:42;1.80;;;1.33;;
14100;SDS011;7127;49.372;8.166;2023-12-28T10:21:10;2.00;;;1.63;;
14100;SDS011;7127;49.372;8.166;2023-12-28T10:23:38;2.63;;;1.67;;
14100;SDS011;7127;49.372;8.166;2023-12-28T10:26:05;2.50;;;1.60;;
14100;SDS011;7127;49.372;8.166;2023-12-28T10:28:32;1.97;;;1.53;;
14100;SDS011;7127;49.372;8.166;2023-12-28T10:31:00;2.83;;;1.30;;
14100;SDS011;7127;49.372;8.166;2023-12-28T10:33:27;1.30;;;1.20;;
14100;SDS011;7127;49.372;8.166;2023-12-28T10:35:54;1.60;;;1.43;;
14100;SDS011;7127;49.372;8.166;2023-12-28T10:38:24;3.00;;;2.20;;
14100;SDS011;7127;49.372;8.166;2023-12-28T10:40:55;2.30;;;2.00;;
14100;SDS011;7127;49.372;8.166;2023-12-28T10:43:22;2.80;;;1.77;;
14100;SDS011;7127;49.372;8.166;2023-12-28T10:45:51;3.63;;;2.57;;
14100;SDS011;7127;49.372;8.166;2023-12-28T10:48:21;4.00;;;2.57;;
14100;SDS011;7127;49.372;8.166;2023-12-28T10:50:54;3.23;;;2.10;;
14100;SDS011;7127;49.372;8.166;2023-12-28T10:53:26;2.63;;;1.83;;
14100;SDS011;7127;49.372;8.166;2023-12-28T10:56:03;1.67;;;1.50;;
14100;SDS011;7127;49.372;8.166;2023-12-28T10:58:40;1.50;;;1.40;;
14100;SDS011;7127;49.372;8.166;2023-12-28T11:01:13;3.70;;;1.90;;
14100;SDS011;7127;49.372;8.166;2023-12-28T11:03:43;3.80;;;2.53;;
14100;SDS011;7127;49.372;8.166;2023-12-28T11:06:12;2.77;;;1.97;;
14100;SDS011;7127;49.372;8.166;2023-12-28T11:08:43;2.23;;;1.70;;
14100;SDS011;7127;49.372;8.166;2023-12-28T11:11:17;2.70;;;1.80;;
14100;SDS011;7127;49.372;8.166;2023-12-28T11:13:45;2.33;;;1.77;;
14100;SDS011;7127;49.372;8.166;2023-12-28T11:16:13;2.37;;;1.50;;
14100;SDS011;7127;49.372;8.166;2023-12-28T11:18:41;1.77;;;1.27;;
14100;SDS011;7127;49.372;8.166;2023-12-28T11:21:08;1.13;;;1.00;;
14100;SDS011;7127;49.372;8.166;2023-12-28T11:23:35;2.10;;;1.10;;
14100;SDS011;7127;49.372;8.166;2023-12-28T11:26:15;1.23;;;1.00;;
14100;SDS011;7127;49.372;8.166;2023-12-28T11:28:43;2.43;;;1.30;;
14100;SDS011;7127;49.372;8.166;2023-12-28T11:31:10;2.13;;;1.10;;
14100;SDS011;7127;49.372;8.166;2023-12-28T11:33:43;0.80;;;0.80;;
14100;SDS011;7127;49.372;8.166;2023-12-28T11:36:10;1.27;;;1.10;;
14100;SDS011;7127;49.372;8.166;2023-12-28T11:38:37;1.40;;;1.17;;
14100;SDS011;7127;49.372;8.166;2023-12-28T11:41:07;1.63;;;1.07;;
14100;SDS011;7127;49.372;8.166;2023-12-28T11:43:34;1.10;;;0.93;;
14100;SDS011;7127;49.372;8.166;2023-12-28T11:46:03;0.97;;;0.93;;
14100;SDS011;7127;49.372;8.166;2023-12-28T11:48:33;0.97;;;0.90;;
14100;SDS011;7127;49.372;8.166;2023-12-28T11:51:00;1.27;;;1.03;;
14100;SDS011;7127;49.372;8.166;2023-12-28T11:53:28;1.60;;;0.90;;
14100;SDS011;7127;49.372;8.166;2023-12-28T11:55:59;1.13;;;0.90;;
14100;SDS011;7127;49.372;8.166;2023-12-28T11:58:28;1.77;;;1.00;;
14100;SDS011;7127;49.372;8.166;2023-12-28T12:00:54;1.30;;;1.20;;
14100;SDS011;7127;49.372;8.166;2023-12-28T12:03:24;1.13;;;1.03;;
14100;SDS011;7127;49.372;8.166;2023-12-28T12:05:51;1.60;;;1.13;;
14100;SDS011;7127;49.372;8.166;2023-12-28T12:08:19;1.57;;;1.40;;
14100;SDS011;7127;49.372;8.166;2023-12-28T12:10:46;1.57;;;1.47;;
14100;SDS011;7127;49.372;8.166;2023-12-28T12:13:12;2.33;;;1.30;;
14100;SDS011;7127;49.372;8.166;2023-12-28T12:15:41;1.40;;;1.30;;
14100;SDS011;7127;49.372;8.166;2023-12-28T12:18:08;2.13;;;1.30;;
14100;SDS011;7127;49.372;8.166;2023-12-28T12:20:37;1.20;;;1.10;;
14100;SDS011;7127;49.372;8.166;2023-12-28T12:23:04;1.80;;;1.60;;
14100;SDS011;7127;49.372;8.166;2023-12-28T12:25:30;2.13;;;1.80;;
14100;SDS011;7127;49.372;8.166;2023-12-28T12:27:57;3.30;;;1.70;;
14100;SDS011;7127;49.372;8.166;2023-12-28T12:30:24;2.70;;;1.80;;
14100;SDS011;7127;49.372;8.166;2023-12-28T12:32:51;2.70;;;2.20;;
14100;SDS011;7127;49.372;8.166;2023-12-28T12:35:17;1.80;;;1.60;;
14100;SDS011;7127;49.372;8.166;2023-12-28T12:37:47;2.40;;;1.70;;
14100;SDS011;7127;49.372;8.166;2023-12-28T12:40:16;1.93;;;1.53;;
14100;SDS011;7127;49.372;8.166;2023-12-28T12:42:51;1.57;;;1.47;;
14100;SDS011;7127;49.372;8.166;2023-12-28T12:45:18;1.47;;;1.30;;
14100;SDS011;7127;49.372;8.166;2023-12-28T12:47:45;1.27;;;1.17;;
14100;SDS011;7127;49.372;8.166;2023-12-28T12:50:12;1.37;;;1.23;;
14100;SDS011;7127;49.372;8.166;2023-12-28T12:52:41;1.53;;;1.40;;
14100;SDS011;7127;49.372;8.166;2023-12-28T12:55:11;1.93;;;1.50;;
14100;SDS011;7127;49.372;8.166;2023-12-28T12:57:39;1.70;;;1.40;;
14100;SDS011;7127;49.372;8.166;2023-12-28T13:00:06;1.00;;;0.90;;
14100;SDS011;7127;49.372;8.166;2023-12-28T13:02:35;0.90;;;0.90;;
14100;SDS011;7127;49.372;8.166;2023-12-28T13:05:02;0.93;;;0.77;;
14100;SDS011;7127;49.372;8.166;2023-12-28T13:07:30;0.80;;;0.70;;
14100;SDS011;7127;49.372;8.166;2023-12-28T13:09:57;0.77;;;0.67;;
14100;SDS011;7127;49.372;8.166;2023-12-28T13:12:25;1.07;;;0.80;;
14100;SDS011;7127;49.372;8.166;2023-12-28T13:14:52;1.07;;;0.90;;
14100;SDS011;7127;49.372;8.166;2023-12-28T13:17:19;0.60;;;0.57;;
14100;SDS011;7127;49.372;8.166;2023-12-28T13:19:45;0.93;;;0.80;;
14100;SDS011;7127;49.372;8.166;2023-12-28T13:22:12;0.70;;;0.70;;
14100;SDS011;7127;49.372;8.166;2023-12-28T13:24:39;0.87;;;0.80;;
14100;SDS011;7127;49.372;8.166;2023-12-28T13:27:06;1.50;;;0.73;;
14100;SDS011;7127;49.372;8.166;2023-12-28T13:29:34;1.13;;;0.70;;
14100;SDS011;7127;49.372;8.166;2023-12-28T13:32:00;0.67;;;0.67;;
14100;SDS011;7127;49.372;8.166;2023-12-28T13:34:28;0.67;;;0.67;;
14100;SDS011;7127;49.372;8.166;2023-12-28T13:36:55;1.10;;;1.00;;
14100;SDS011;7127;49.372;8.166;2023-12-28T13:39:24;1.17;;;0.80;;
14100;SDS011;7127;49.372;8.166;2023-12-28T13:41:53;1.07;;;0.90;;
14100;SDS011;7127;49.372;8.166;2023-12-28T13:44:20;1.23;;;0.80;;
14100;SDS011;7127;49.372;8.166;2023-12-28T13:46:48;1.50;;;1.00;;
14100;SDS011;7127;49.372;8.166;2023-12-28T13:49:15;1.27;;;0.93;;
14100;SDS011;7127;49.372;8.166;2023-12-28T13:51:42;1.20;;;0.90;;
14100;SDS011;7127;49.372;8.166;2023-12-28T13:54:11;1.00;;;0.90;;
14100;SDS011;7127;49.372;8.166;2023-12-28T13:56:38;2.03;;;0.90;;
14100;SDS011;7127;49.372;8.166;2023-12-28T13:59:05;1.07;;;0.90;;
14100;SDS011;7127;49.372;8.166;2023-12-28T14:01:32;1.37;;;1.00;;
14100;SDS011;7127;49.372;8.166;2023-12-28T14:04:00;1.07;;;0.97;;
14100;SDS011;7127;49.372;8.166;2023-12-28T14:06:28;1.13;;;0.90;;
14100;SDS011;7127;49.372;8.166;2023-12-28T14:08:54;1.17;;;1.07;;
14100;SDS011;7127;49.372;8.166;2023-12-28T14:11:22;1.03;;;0.93;;
14100;SDS011;7127;49.372;8.166;2023-12-28T14:13:49;1.10;;;1.00;;
14100;SDS011;7127;49.372;8.166;2023-12-28T14:16:16;1.40;;;1.20;;
14100;SDS011;7127;49.372;8.166;2023-12-28T14:18:42;0.90;;;0.80;;
14100;SDS011;7127;49.372;8.166;2023-12-28T14:21:11;0.80;;;0.80;;
14100;SDS011;7127;49.372;8.166;2023-12-28T14:23:38;1.70;;;0.97;;
14100;SDS011;7127;49.372;8.166;2023-12-28T14:26:07;1.77;;;1.10;;
14100;SDS011;7127;49.372;8.166;2023-12-28T14:28:38;1.63;;;1.00;;
14100;SDS011;7127;49.372;8.166;2023-12-28T14:31:07;2.03;;;1.30;;
14100;SDS011;7127;49.372;8.166;2023-12-28T14:33:34;1.83;;;1.17;;
14100;SDS011;7127;49.372;8.166;2023-12-28T14:36:02;1.57;;;1.10;;
14100;SDS011;7127;49.372;8.166;2023-12-28T14:38:31;1.77;;;1.00;;
14100;SDS011;7127;49.372;8.166;2023-12-28T14:40:58;1.40;;;1.13;;
14100;SDS011;7127;49.372;8.166;2023-12-28T14:43:25;1.30;;;1.20;;
14100;SDS011;7127;49.372;8.166;2023-12-28T14:45:51;0.90;;;0.80;;
14100;SDS011;7127;49.372;8.166;2023-12-28T14:48:18;1.20;;;1.00;;
14100;SDS011;7127;49.372;8.166;2023-12-28T14:50:45;1.13;;;1.03;;
14100;SDS011;7127;49.372;8.166;2023-12-28T14:53:12;0.87;;;0.87;;
14100;SDS011;7127;49.372;8.166;2023-12-28T14:55:40;2.27;;;1.00;;
14100;SDS011;7127;49.372;8.166;2023-12-28T14:58:07;1.20;;;1.10;;
14100;SDS011;7127;49.372;8.166;2023-12-28T15:00:34;1.07;;;0.97;;
14100;SDS011;7127;49.372;8.166;2023-12-28T15:03:03;1.20;;;1.10;;